This is the latest recevied weather packets stored in our database for station/object SK4BW-10. If no packets are shown the sender has not sent any weather packets the latest 10 day(s).
| Time | Temp. | Humidity | Pressure | Rain* | Wind** | Luminosity | Snow |
|---|---|---|---|---|---|---|---|
| 1777485038 | 12.78° C | 53% | 1024 hPa | - | - | - | - |
| 1777484137 | 11.67° C | 53% | 1024 hPa | - | - | - | - |
| 1777483236 | 10.56° C | 61% | 1024.1 hPa | - | - | - | - |
| 1777482335 | 10.56° C | 62% | 1024.3 hPa | - | - | - | - |
| 1777481435 | 10° C | 63% | 1024.3 hPa | - | - | - | - |
| 1777480535 | 10.56° C | 62% | 1024.4 hPa | - | - | - | - |
| 1777479634 | 10.56° C | 61% | 1024.4 hPa | - | - | - | - |
| 1777478733 | 10° C | 65% | 1024.6 hPa | - | - | - | - |
| 1777477832 | 10° C | 64% | 1024.9 hPa | - | - | - | - |
| 1777476931 | 9.44° C | 64% | 1025.1 hPa | - | - | - | - |
| 1777476031 | 9.44° C | 66% | 1025.1 hPa | - | - | - | - |
| 1777475130 | 8.89° C | 66% | 1025.1 hPa | - | - | - | - |
| 1777474230 | 8.89° C | 66% | 1025.2 hPa | - | - | - | - |
| 1777473329 | 8.89° C | 65% | 1025.5 hPa | - | - | - | - |
| 1777472428 | 8.89° C | 64% | 1025.6 hPa | - | - | - | - |
| 1777471528 | 8.89° C | 65% | 1025.6 hPa | - | - | - | - |
| 1777470628 | 8.89° C | 66% | 1025.5 hPa | - | - | - | - |
| 1777469726 | 8.33° C | 66% | 1025.5 hPa | - | - | - | - |
| 1777468826 | 8.33° C | 64% | 1025.8 hPa | - | - | - | - |
| 1777467926 | 8.33° C | 63% | 1025.9 hPa | - | - | - | - |
| 1777467025 | 8.33° C | 63% | 1026 hPa | - | - | - | - |
| 1777466123 | 7.78° C | 67% | 1026.1 hPa | - | - | - | - |
| 1777465222 | 7.78° C | 64% | 1026.3 hPa | - | - | - | - |
| 1777464321 | 7.78° C | 62% | 1026.4 hPa | - | - | - | - |
| 1777463421 | 7.78° C | 62% | 1026.4 hPa | - | - | - | - |
* Rain since midnight (hover to see other rain measurements)
** Current wind speed in m/s (hover to see current wind gust speed)